sensor_id;sensor_type;location;lat;lon;timestamp;temperature;humidity
42479;DHT22;28110;47.080;9.476;2023-12-22T00:02:16;8.70;99.90
42479;DHT22;28110;47.080;9.476;2023-12-22T00:04:42;8.80;99.90
42479;DHT22;28110;47.080;9.476;2023-12-22T00:07:07;8.70;99.90
42479;DHT22;28110;47.080;9.476;2023-12-22T00:09:33;8.70;99.90
42479;DHT22;28110;47.080;9.476;2023-12-22T00:11:58;8.70;99.90
42479;DHT22;28110;47.080;9.476;2023-12-22T00:14:24;8.60;99.90
42479;DHT22;28110;47.080;9.476;2023-12-22T00:16:49;8.50;99.90
42479;DHT22;28110;47.080;9.476;2023-12-22T00:19:15;8.60;99.90
42479;DHT22;28110;47.080;9.476;2023-12-22T00:21:40;8.50;99.90
42479;DHT22;28110;47.080;9.476;2023-12-22T00:24:06;8.50;99.90
42479;DHT22;28110;47.080;9.476;2023-12-22T00:26:32;8.40;99.90
42479;DHT22;28110;47.080;9.476;2023-12-22T00:28:57;8.40;99.90
42479;DHT22;28110;47.080;9.476;2023-12-22T00:31:23;8.70;99.90
42479;DHT22;28110;47.080;9.476;2023-12-22T00:33:48;8.80;99.90
42479;DHT22;28110;47.080;9.476;2023-12-22T00:36:14;8.90;99.90
42479;DHT22;28110;47.080;9.476;2023-12-22T00:38:40;8.90;99.90
42479;DHT22;28110;47.080;9.476;2023-12-22T00:41:06;8.70;99.90
42479;DHT22;28110;47.080;9.476;2023-12-22T00:43:31;8.80;99.90
42479;DHT22;28110;47.080;9.476;2023-12-22T00:45:57;9.00;99.90
42479;DHT22;28110;47.080;9.476;2023-12-22T00:48:23;9.10;99.90
42479;DHT22;28110;47.080;9.476;2023-12-22T00:50:48;9.20;99.90
42479;DHT22;28110;47.080;9.476;2023-12-22T00:53:14;9.20;99.90
42479;DHT22;28110;47.080;9.476;2023-12-22T00:55:39;9.30;99.90
42479;DHT22;28110;47.080;9.476;2023-12-22T00:58:05;9.40;99.90
42479;DHT22;28110;47.080;9.476;2023-12-22T01:00:30;9.20;99.90
42479;DHT22;28110;47.080;9.476;2023-12-22T01:02:56;9.30;99.90
42479;DHT22;28110;47.080;9.476;2023-12-22T01:05:21;9.30;99.90
42479;DHT22;28110;47.080;9.476;2023-12-22T01:07:47;9.20;99.90
42479;DHT22;28110;47.080;9.476;2023-12-22T01:10:13;9.10;99.90
42479;DHT22;28110;47.080;9.476;2023-12-22T01:12:38;9.20;99.90
42479;DHT22;28110;47.080;9.476;2023-12-22T01:15:04;9.20;99.90
42479;DHT22;28110;47.080;9.476;2023-12-22T01:17:30;9.20;99.90
42479;DHT22;28110;47.080;9.476;2023-12-22T01:19:55;9.30;99.90
42479;DHT22;28110;47.080;9.476;2023-12-22T01:22:21;9.40;99.90
42479;DHT22;28110;47.080;9.476;2023-12-22T01:24:48;9.40;99.90
42479;DHT22;28110;47.080;9.476;2023-12-22T01:27:14;9.40;99.90
42479;DHT22;28110;47.080;9.476;2023-12-22T01:29:39;9.40;99.90
42479;DHT22;28110;47.080;9.476;2023-12-22T01:32:05;9.40;99.90
42479;DHT22;28110;47.080;9.476;2023-12-22T01:34:31;9.30;99.90
42479;DHT22;28110;47.080;9.476;2023-12-22T01:36:56;9.20;99.90
42479;DHT22;28110;47.080;9.476;2023-12-22T01:39:22;9.00;99.90
42479;DHT22;28110;47.080;9.476;2023-12-22T01:41:47;8.90;99.90
42479;DHT22;28110;47.080;9.476;2023-12-22T01:44:13;8.70;99.90
42479;DHT22;28110;47.080;9.476;2023-12-22T01:46:39;8.60;99.90
42479;DHT22;28110;47.080;9.476;2023-12-22T01:49:05;8.50;99.90
42479;DHT22;28110;47.080;9.476;2023-12-22T01:51:33;8.50;99.90
42479;DHT22;28110;47.080;9.476;2023-12-22T01:54:02;8.40;99.90
42479;DHT22;28110;47.080;9.476;2023-12-22T01:56:29;8.40;99.90
42479;DHT22;28110;47.080;9.476;2023-12-22T01:58:58;8.20;99.90
42479;DHT22;28110;47.080;9.476;2023-12-22T02:01:24;8.10;99.90
42479;DHT22;28110;47.080;9.476;2023-12-22T02:03:51;8.00;99.90
42479;DHT22;28110;47.080;9.476;2023-12-22T02:06:20;7.90;99.90
42479;DHT22;28110;47.080;9.476;2023-12-22T02:08:49;7.90;99.90
42479;DHT22;28110;47.080;9.476;2023-12-22T02:11:15;7.90;99.90
42479;DHT22;28110;47.080;9.476;2023-12-22T02:13:42;8.00;99.90
42479;DHT22;28110;47.080;9.476;2023-12-22T02:16:18;8.00;99.90
42479;DHT22;28110;47.080;9.476;2023-12-22T02:18:46;8.10;99.90
42479;DHT22;28110;47.080;9.476;2023-12-22T02:21:12;8.20;99.90
42479;DHT22;28110;47.080;9.476;2023-12-22T02:23:38;8.20;99.90
42479;DHT22;28110;47.080;9.476;2023-12-22T02:26:17;8.10;99.90
42479;DHT22;28110;47.080;9.476;2023-12-22T02:28:46;8.10;99.90
42479;DHT22;28110;47.080;9.476;2023-12-22T02:31:26;8.00;99.90
42479;DHT22;28110;47.080;9.476;2023-12-22T02:33:54;8.00;99.90
42479;DHT22;28110;47.080;9.476;2023-12-22T02:36:21;8.10;99.90
42479;DHT22;28110;47.080;9.476;2023-12-22T02:38:48;8.20;99.90
42479;DHT22;28110;47.080;9.476;2023-12-22T02:41:14;8.20;99.90
42479;DHT22;28110;47.080;9.476;2023-12-22T02:43:40;8.20;99.90
42479;DHT22;28110;47.080;9.476;2023-12-22T02:46:13;8.10;99.90
42479;DHT22;28110;47.080;9.476;2023-12-22T02:48:39;8.00;99.90
42479;DHT22;28110;47.080;9.476;2023-12-22T02:51:05;7.90;99.90
42479;DHT22;28110;47.080;9.476;2023-12-22T02:53:30;7.90;99.90
42479;DHT22;28110;47.080;9.476;2023-12-22T02:55:56;7.90;99.90
42479;DHT22;28110;47.080;9.476;2023-12-22T02:58:21;7.90;99.90
42479;DHT22;28110;47.080;9.476;2023-12-22T03:00:47;7.80;99.90
42479;DHT22;28110;47.080;9.476;2023-12-22T03:03:12;7.70;99.90
42479;DHT22;28110;47.080;9.476;2023-12-22T03:05:38;7.60;99.90
42479;DHT22;28110;47.080;9.476;2023-12-22T03:08:04;7.50;99.90
42479;DHT22;28110;47.080;9.476;2023-12-22T03:10:30;7.50;99.90
42479;DHT22;28110;47.080;9.476;2023-12-22T03:12:55;7.40;99.90
42479;DHT22;28110;47.080;9.476;2023-12-22T03:15:21;7.40;99.90
42479;DHT22;28110;47.080;9.476;2023-12-22T03:17:47;7.40;99.90
42479;DHT22;28110;47.080;9.476;2023-12-22T03:20:12;7.30;99.90
42479;DHT22;28110;47.080;9.476;2023-12-22T03:22:38;7.20;99.90
42479;DHT22;28110;47.080;9.476;2023-12-22T03:25:04;7.20;99.90
42479;DHT22;28110;47.080;9.476;2023-12-22T03:27:29;7.20;99.90
42479;DHT22;28110;47.080;9.476;2023-12-22T03:29:55;7.20;99.90
42479;DHT22;28110;47.080;9.476;2023-12-22T03:32:20;7.20;99.90
42479;DHT22;28110;47.080;9.476;2023-12-22T03:34:46;7.20;99.90
42479;DHT22;28110;47.080;9.476;2023-12-22T03:37:11;7.20;99.90
42479;DHT22;28110;47.080;9.476;2023-12-22T03:39:37;7.20;99.90
42479;DHT22;28110;47.080;9.476;2023-12-22T03:42:02;7.30;99.90
42479;DHT22;28110;47.080;9.476;2023-12-22T03:44:28;7.40;99.90
42479;DHT22;28110;47.080;9.476;2023-12-22T03:46:53;7.50;99.90
42479;DHT22;28110;47.080;9.476;2023-12-22T03:49:19;7.50;99.90
42479;DHT22;28110;47.080;9.476;2023-12-22T03:51:45;7.60;99.90
42479;DHT22;28110;47.080;9.476;2023-12-22T03:54:10;7.50;99.90
42479;DHT22;28110;47.080;9.476;2023-12-22T03:56:37;7.40;99.90
42479;DHT22;28110;47.080;9.476;2023-12-22T03:59:02;7.40;99.90
42479;DHT22;28110;47.080;9.476;2023-12-22T04:01:28;7.40;99.90
42479;DHT22;28110;47.080;9.476;2023-12-22T04:03:53;7.40;99.90
42479;DHT22;28110;47.080;9.476;2023-12-22T04:06:19;7.40;99.90
42479;DHT22;28110;47.080;9.476;2023-12-22T04:08:45;7.30;99.90
42479;DHT22;28110;47.080;9.476;2023-12-22T04:11:10;7.30;99.90
42479;DHT22;28110;47.080;9.476;2023-12-22T04:13:36;7.30;99.90
42479;DHT22;28110;47.080;9.476;2023-12-22T04:16:01;7.30;99.90
42479;DHT22;28110;47.080;9.476;2023-12-22T04:18:30;7.30;99.90
42479;DHT22;28110;47.080;9.476;2023-12-22T04:20:55;7.30;99.90
42479;DHT22;28110;47.080;9.476;2023-12-22T04:23:21;7.40;99.90
42479;DHT22;28110;47.080;9.476;2023-12-22T04:25:47;7.30;99.90
42479;DHT22;28110;47.080;9.476;2023-12-22T04:28:12;7.30;99.90
42479;DHT22;28110;47.080;9.476;2023-12-22T04:30:38;7.30;99.90
42479;DHT22;28110;47.080;9.476;2023-12-22T04:33:04;7.30;99.90
42479;DHT22;28110;47.080;9.476;2023-12-22T04:35:29;7.30;99.90
42479;DHT22;28110;47.080;9.476;2023-12-22T04:37:55;7.20;99.90
42479;DHT22;28110;47.080;9.476;2023-12-22T04:40:20;7.20;99.90
42479;DHT22;28110;47.080;9.476;2023-12-22T04:42:46;7.20;99.90
42479;DHT22;28110;47.080;9.476;2023-12-22T04:45:12;7.10;99.90
42479;DHT22;28110;47.080;9.476;2023-12-22T04:47:37;7.10;99.90
42479;DHT22;28110;47.080;9.476;2023-12-22T04:50:03;7.10;99.90
42479;DHT22;28110;47.080;9.476;2023-12-22T04:52:29;7.00;99.90
42479;DHT22;28110;47.080;9.476;2023-12-22T04:54:54;7.00;99.90
42479;DHT22;28110;47.080;9.476;2023-12-22T04:57:20;7.00;99.90
42479;DHT22;28110;47.080;9.476;2023-12-22T04:59:47;6.90;99.90
42479;DHT22;28110;47.080;9.476;2023-12-22T05:02:12;6.90;99.90
42479;DHT22;28110;47.080;9.476;2023-12-22T05:04:38;6.90;99.90
42479;DHT22;28110;47.080;9.476;2023-12-22T05:07:03;6.80;99.90
42479;DHT22;28110;47.080;9.476;2023-12-22T05:09:33;6.80;99.90
42479;DHT22;28110;47.080;9.476;2023-12-22T05:11:59;6.80;99.90
42479;DHT22;28110;47.080;9.476;2023-12-22T05:14:24;6.80;99.90
42479;DHT22;28110;47.080;9.476;2023-12-22T05:16:50;6.80;99.90
42479;DHT22;28110;47.080;9.476;2023-12-22T05:19:20;6.80;99.90
42479;DHT22;28110;47.080;9.476;2023-12-22T05:21:46;6.70;99.90
42479;DHT22;28110;47.080;9.476;2023-12-22T05:24:11;6.70;99.90
42479;DHT22;28110;47.080;9.476;2023-12-22T05:26:37;6.70;99.90
42479;DHT22;28110;47.080;9.476;2023-12-22T05:29:02;6.60;99.90
42479;DHT22;28110;47.080;9.476;2023-12-22T05:31:28;6.60;99.90
42479;DHT22;28110;47.080;9.476;2023-12-22T05:33:54;6.60;99.90
42479;DHT22;28110;47.080;9.476;2023-12-22T05:36:20;6.60;99.90
42479;DHT22;28110;47.080;9.476;2023-12-22T05:38:46;6.70;99.90
42479;DHT22;28110;47.080;9.476;2023-12-22T05:41:13;6.80;99.90
42479;DHT22;28110;47.080;9.476;2023-12-22T05:43:38;6.80;99.90
42479;DHT22;28110;47.080;9.476;2023-12-22T05:46:04;6.90;99.90
42479;DHT22;28110;47.080;9.476;2023-12-22T05:48:29;6.90;99.90
42479;DHT22;28110;47.080;9.476;2023-12-22T05:50:58;7.00;99.90
42479;DHT22;28110;47.080;9.476;2023-12-22T05:53:23;6.90;99.90
42479;DHT22;28110;47.080;9.476;2023-12-22T05:55:49;6.90;99.90
42479;DHT22;28110;47.080;9.476;2023-12-22T05:58:15;6.90;99.90
42479;DHT22;28110;47.080;9.476;2023-12-22T06:00:40;6.80;99.90
42479;DHT22;28110;47.080;9.476;2023-12-22T06:03:06;6.80;99.90
42479;DHT22;28110;47.080;9.476;2023-12-22T06:05:31;6.70;99.90
42479;DHT22;28110;47.080;9.476;2023-12-22T06:07:57;6.70;99.90
42479;DHT22;28110;47.080;9.476;2023-12-22T06:10:22;7.00;99.90
42479;DHT22;28110;47.080;9.476;2023-12-22T06:12:48;7.20;99.90
42479;DHT22;28110;47.080;9.476;2023-12-22T06:15:13;7.20;99.90
42479;DHT22;28110;47.080;9.476;2023-12-22T06:17:39;7.20;99.90
42479;DHT22;28110;47.080;9.476;2023-12-22T06:20:05;7.30;99.90
42479;DHT22;28110;47.080;9.476;2023-12-22T06:22:31;7.30;99.90
42479;DHT22;28110;47.080;9.476;2023-12-22T06:24:57;7.40;99.90
42479;DHT22;28110;47.080;9.476;2023-12-22T06:27:23;7.40;99.90
42479;DHT22;28110;47.080;9.476;2023-12-22T06:29:48;7.30;99.90
42479;DHT22;28110;47.080;9.476;2023-12-22T06:32:14;7.30;99.90
42479;DHT22;28110;47.080;9.476;2023-12-22T06:34:39;7.30;99.90
42479;DHT22;28110;47.080;9.476;2023-12-22T06:37:05;7.30;99.90
42479;DHT22;28110;47.080;9.476;2023-12-22T06:39:33;7.20;99.90
42479;DHT22;28110;47.080;9.476;2023-12-22T06:41:58;7.10;99.90
42479;DHT22;28110;47.080;9.476;2023-12-22T06:44:24;7.00;99.90
42479;DHT22;28110;47.080;9.476;2023-12-22T06:46:51;6.90;99.90
42479;DHT22;28110;47.080;9.476;2023-12-22T06:49:16;6.80;99.90
42479;DHT22;28110;47.080;9.476;2023-12-22T06:51:42;6.80;99.90
42479;DHT22;28110;47.080;9.476;2023-12-22T06:54:07;6.70;99.90
42479;DHT22;28110;47.080;9.476;2023-12-22T06:56:34;6.70;99.90
42479;DHT22;28110;47.080;9.476;2023-12-22T06:59:00;6.60;99.90
42479;DHT22;28110;47.080;9.476;2023-12-22T07:01:30;6.60;99.90
42479;DHT22;28110;47.080;9.476;2023-12-22T07:03:59;6.70;99.90
42479;DHT22;28110;47.080;9.476;2023-12-22T07:06:27;6.80;99.90
42479;DHT22;28110;47.080;9.476;2023-12-22T07:11:40;7.00;99.90
42479;DHT22;28110;47.080;9.476;2023-12-22T07:14:05;7.10;99.90
42479;DHT22;28110;47.080;9.476;2023-12-22T07:16:32;7.20;99.90
42479;DHT22;28110;47.080;9.476;2023-12-22T07:18:58;7.30;99.90
42479;DHT22;28110;47.080;9.476;2023-12-22T07:21:23;7.50;99.90
42479;DHT22;28110;47.080;9.476;2023-12-22T07:23:49;7.50;99.90
42479;DHT22;28110;47.080;9.476;2023-12-22T07:26:14;7.50;99.90
42479;DHT22;28110;47.080;9.476;2023-12-22T07:28:40;7.40;99.90
42479;DHT22;28110;47.080;9.476;2023-12-22T07:31:05;7.20;99.90
42479;DHT22;28110;47.080;9.476;2023-12-22T07:33:31;7.30;99.90
42479;DHT22;28110;47.080;9.476;2023-12-22T07:35:57;7.30;99.90
42479;DHT22;28110;47.080;9.476;2023-12-22T07:38:22;7.40;99.90
42479;DHT22;28110;47.080;9.476;2023-12-22T07:40:48;7.40;99.90
42479;DHT22;28110;47.080;9.476;2023-12-22T07:43:15;7.50;99.90
42479;DHT22;28110;47.080;9.476;2023-12-22T07:45:41;7.50;99.90
42479;DHT22;28110;47.080;9.476;2023-12-22T07:48:06;7.70;99.90
42479;DHT22;28110;47.080;9.476;2023-12-22T07:50:32;7.90;99.90
42479;DHT22;28110;47.080;9.476;2023-12-22T07:52:58;7.90;99.90
42479;DHT22;28110;47.080;9.476;2023-12-22T07:55:24;7.80;99.90
42479;DHT22;28110;47.080;9.476;2023-12-22T07:57:49;7.60;99.90
42479;DHT22;28110;47.080;9.476;2023-12-22T08:00:16;7.40;99.90
42479;DHT22;28110;47.080;9.476;2023-12-22T08:02:42;7.50;99.90
42479;DHT22;28110;47.080;9.476;2023-12-22T08:05:08;7.40;99.90
42479;DHT22;28110;47.080;9.476;2023-12-22T08:07:34;7.60;99.90
42479;DHT22;28110;47.080;9.476;2023-12-22T08:10:00;7.60;99.90
42479;DHT22;28110;47.080;9.476;2023-12-22T08:12:27;7.60;99.90
42479;DHT22;28110;47.080;9.476;2023-12-22T08:14:53;7.40;99.90
42479;DHT22;28110;47.080;9.476;2023-12-22T08:17:19;7.30;99.90
42479;DHT22;28110;47.080;9.476;2023-12-22T08:19:44;7.50;99.90
42479;DHT22;28110;47.080;9.476;2023-12-22T08:22:10;7.50;99.90
42479;DHT22;28110;47.080;9.476;2023-12-22T08:24:36;7.50;99.90
42479;DHT22;28110;47.080;9.476;2023-12-22T08:27:01;7.50;99.90
42479;DHT22;28110;47.080;9.476;2023-12-22T08:29:27;7.40;99.90
42479;DHT22;28110;47.080;9.476;2023-12-22T08:31:53;7.40;99.90
42479;DHT22;28110;47.080;9.476;2023-12-22T08:34:19;7.40;99.90
42479;DHT22;28110;47.080;9.476;2023-12-22T08:36:44;7.30;99.90
42479;DHT22;28110;47.080;9.476;2023-12-22T08:39:10;7.30;99.90
42479;DHT22;28110;47.080;9.476;2023-12-22T08:41:36;7.60;99.90
42479;DHT22;28110;47.080;9.476;2023-12-22T08:44:06;7.60;99.90
42479;DHT22;28110;47.080;9.476;2023-12-22T08:46:32;7.90;99.90
42479;DHT22;28110;47.080;9.476;2023-12-22T08:48:58;8.10;99.90
42479;DHT22;28110;47.080;9.476;2023-12-22T08:51:27;8.10;99.90
42479;DHT22;28110;47.080;9.476;2023-12-22T08:53:53;8.00;99.90
42479;DHT22;28110;47.080;9.476;2023-12-22T08:56:23;8.00;99.90
42479;DHT22;28110;47.080;9.476;2023-12-22T08:58:50;8.00;99.90
42479;DHT22;28110;47.080;9.476;2023-12-22T09:01:17;7.90;99.90
42479;DHT22;28110;47.080;9.476;2023-12-22T09:03:43;7.70;99.90
42479;DHT22;28110;47.080;9.476;2023-12-22T09:06:14;7.80;99.90
42479;DHT22;28110;47.080;9.476;2023-12-22T09:08:40;7.70;99.90
42479;DHT22;28110;47.080;9.476;2023-12-22T09:11:06;7.70;99.90
42479;DHT22;28110;47.080;9.476;2023-12-22T09:13:31;7.70;99.90
42479;DHT22;28110;47.080;9.476;2023-12-22T09:15:58;7.70;99.90
42479;DHT22;28110;47.080;9.476;2023-12-22T09:18:23;7.70;99.90
42479;DHT22;28110;47.080;9.476;2023-12-22T09:20:49;7.60;99.90
42479;DHT22;28110;47.080;9.476;2023-12-22T09:23:14;7.50;99.90
42479;DHT22;28110;47.080;9.476;2023-12-22T09:25:40;7.50;99.90
42479;DHT22;28110;47.080;9.476;2023-12-22T09:28:05;7.40;99.90
42479;DHT22;28110;47.080;9.476;2023-12-22T09:30:31;7.40;99.90
42479;DHT22;28110;47.080;9.476;2023-12-22T09:32:57;7.30;99.90
42479;DHT22;28110;47.080;9.476;2023-12-22T09:35:23;7.30;99.90
42479;DHT22;28110;47.080;9.476;2023-12-22T09:37:50;7.30;99.90
42479;DHT22;28110;47.080;9.476;2023-12-22T09:40:16;7.20;99.90
42479;DHT22;28110;47.080;9.476;2023-12-22T09:42:43;7.20;99.90
42479;DHT22;28110;47.080;9.476;2023-12-22T09:45:11;7.10;99.90
42479;DHT22;28110;47.080;9.476;2023-12-22T09:47:41;7.00;99.90
42479;DHT22;28110;47.080;9.476;2023-12-22T09:50:07;6.90;99.90
42479;DHT22;28110;47.080;9.476;2023-12-22T09:52:35;7.00;99.90
42479;DHT22;28110;47.080;9.476;2023-12-22T09:55:01;6.90;99.90
42479;DHT22;28110;47.080;9.476;2023-12-22T09:57:30;6.80;99.90
42479;DHT22;28110;47.080;9.476;2023-12-22T09:59:57;6.70;99.90
42479;DHT22;28110;47.080;9.476;2023-12-22T10:02:25;6.80;99.90
42479;DHT22;28110;47.080;9.476;2023-12-22T10:04:51;6.70;99.90
42479;DHT22;28110;47.080;9.476;2023-12-22T10:07:17;6.80;99.90
42479;DHT22;28110;47.080;9.476;2023-12-22T10:09:44;6.70;99.90
42479;DHT22;28110;47.080;9.476;2023-12-22T10:12:13;6.70;99.90
42479;DHT22;28110;47.080;9.476;2023-12-22T10:14:40;6.70;99.90
42479;DHT22;28110;47.080;9.476;2023-12-22T10:17:06;6.60;99.90
42479;DHT22;28110;47.080;9.476;2023-12-22T10:19:32;6.60;99.90
42479;DHT22;28110;47.080;9.476;2023-12-22T10:21:58;6.60;99.90
42479;DHT22;28110;47.080;9.476;2023-12-22T10:24:43;6.60;99.90
42479;DHT22;28110;47.080;9.476;2023-12-22T10:27:10;6.70;99.90
42479;DHT22;28110;47.080;9.476;2023-12-22T10:29:37;6.70;99.90
42479;DHT22;28110;47.080;9.476;2023-12-22T10:32:03;6.80;99.90
42479;DHT22;28110;47.080;9.476;2023-12-22T10:34:32;6.90;99.90
42479;DHT22;28110;47.080;9.476;2023-12-22T10:37:01;7.10;99.90
42479;DHT22;28110;47.080;9.476;2023-12-22T10:39:31;7.10;99.90
42479;DHT22;28110;47.080;9.476;2023-12-22T10:41:57;7.20;99.90
42479;DHT22;28110;47.080;9.476;2023-12-22T10:44:27;7.30;99.90
42479;DHT22;28110;47.080;9.476;2023-12-22T10:46:53;7.40;99.90
42479;DHT22;28110;47.080;9.476;2023-12-22T10:49:20;7.50;99.90
42479;DHT22;28110;47.080;9.476;2023-12-22T10:51:46;7.50;99.90
42479;DHT22;28110;47.080;9.476;2023-12-22T10:54:11;7.50;99.90
42479;DHT22;28110;47.080;9.476;2023-12-22T10:56:37;7.40;99.90
42479;DHT22;28110;47.080;9.476;2023-12-22T10:59:02;7.40;99.90
42479;DHT22;28110;47.080;9.476;2023-12-22T11:01:30;7.30;99.90
42479;DHT22;28110;47.080;9.476;2023-12-22T11:04:02;7.30;99.90
42479;DHT22;28110;47.080;9.476;2023-12-22T11:06:36;7.20;99.90
42479;DHT22;28110;47.080;9.476;2023-12-22T11:09:09;7.10;99.90
42479;DHT22;28110;47.080;9.476;2023-12-22T11:11:37;7.10;99.90
42479;DHT22;28110;47.080;9.476;2023-12-22T11:14:03;7.20;99.90
42479;DHT22;28110;47.080;9.476;2023-12-22T11:16:30;7.20;99.90
42479;DHT22;28110;47.080;9.476;2023-12-22T11:18:56;7.10;99.90
42479;DHT22;28110;47.080;9.476;2023-12-22T11:21:23;7.20;99.90
42479;DHT22;28110;47.080;9.476;2023-12-22T11:23:53;7.20;99.90
42479;DHT22;28110;47.080;9.476;2023-12-22T11:26:20;7.10;99.90
42479;DHT22;28110;47.080;9.476;2023-12-22T11:28:47;7.00;99.90
42479;DHT22;28110;47.080;9.476;2023-12-22T11:31:14;7.00;99.90
42479;DHT22;28110;47.080;9.476;2023-12-22T11:33:47;6.90;99.90
42479;DHT22;28110;47.080;9.476;2023-12-22T11:36:17;6.90;99.90
42479;DHT22;28110;47.080;9.476;2023-12-22T11:38:45;6.80;99.90
42479;DHT22;28110;47.080;9.476;2023-12-22T11:41:22;6.80;99.90
42479;DHT22;28110;47.080;9.476;2023-12-22T11:43:51;6.70;99.90
42479;DHT22;28110;47.080;9.476;2023-12-22T11:46:17;6.80;99.90
42479;DHT22;28110;47.080;9.476;2023-12-22T11:48:49;6.70;99.90
42479;DHT22;28110;47.080;9.476;2023-12-22T11:51:16;6.70;99.90
42479;DHT22;28110;47.080;9.476;2023-12-22T11:53:42;6.60;99.90
42479;DHT22;28110;47.080;9.476;2023-12-22T11:56:08;6.60;99.90
42479;DHT22;28110;47.080;9.476;2023-12-22T11:58:44;6.50;99.90
42479;DHT22;28110;47.080;9.476;2023-12-22T12:01:28;6.50;99.90
42479;DHT22;28110;47.080;9.476;2023-12-22T12:04:02;6.50;99.90
42479;DHT22;28110;47.080;9.476;2023-12-22T12:08:55;6.50;99.90
42479;DHT22;28110;47.080;9.476;2023-12-22T12:11:22;6.50;99.90
42479;DHT22;28110;47.080;9.476;2023-12-22T12:13:48;6.50;99.90
42479;DHT22;28110;47.080;9.476;2023-12-22T12:16:15;6.50;99.90
42479;DHT22;28110;47.080;9.476;2023-12-22T12:18:44;6.50;99.90
42479;DHT22;28110;47.080;9.476;2023-12-22T12:21:11;6.50;99.90
42479;DHT22;28110;47.080;9.476;2023-12-22T12:23:37;6.50;99.90
42479;DHT22;28110;47.080;9.476;2023-12-22T12:26:06;6.50;99.90
42479;DHT22;28110;47.080;9.476;2023-12-22T12:28:33;6.50;99.90
42479;DHT22;28110;47.080;9.476;2023-12-22T12:31:08;6.50;99.90
42479;DHT22;28110;47.080;9.476;2023-12-22T12:33:35;6.40;99.90
42479;DHT22;28110;47.080;9.476;2023-12-22T12:36:02;6.50;99.90
42479;DHT22;28110;47.080;9.476;2023-12-22T12:38:59;6.40;99.90
42479;DHT22;28110;47.080;9.476;2023-12-22T12:41:30;6.40;99.90
42479;DHT22;28110;47.080;9.476;2023-12-22T12:43:59;6.40;99.90
42479;DHT22;28110;47.080;9.476;2023-12-22T12:46:34;6.40;99.90
42479;DHT22;28110;47.080;9.476;2023-12-22T12:49:07;6.40;99.90
42479;DHT22;28110;47.080;9.476;2023-12-22T12:51:42;6.40;99.90
42479;DHT22;28110;47.080;9.476;2023-12-22T12:54:09;6.40;99.90
42479;DHT22;28110;47.080;9.476;2023-12-22T12:56:39;6.30;99.90
42479;DHT22;28110;47.080;9.476;2023-12-22T12:59:12;6.30;99.90
42479;DHT22;28110;47.080;9.476;2023-12-22T13:01:45;6.40;99.90
42479;DHT22;28110;47.080;9.476;2023-12-22T13:04:12;6.30;99.90
42479;DHT22;28110;47.080;9.476;2023-12-22T13:06:58;6.40;99.90
42479;DHT22;28110;47.080;9.476;2023-12-22T13:09:31;6.30;99.90
42479;DHT22;28110;47.080;9.476;2023-12-22T13:11:58;6.30;99.90
42479;DHT22;28110;47.080;9.476;2023-12-22T13:14:24;6.30;99.90
42479;DHT22;28110;47.080;9.476;2023-12-22T13:16:54;6.30;99.90
42479;DHT22;28110;47.080;9.476;2023-12-22T13:19:24;6.30;99.90
42479;DHT22;28110;47.080;9.476;2023-12-22T13:21:51;6.30;99.90
42479;DHT22;28110;47.080;9.476;2023-12-22T13:24:17;6.30;99.90
42479;DHT22;28110;47.080;9.476;2023-12-22T13:26:43;6.30;99.90
42479;DHT22;28110;47.080;9.476;2023-12-22T13:29:10;6.40;99.90
42479;DHT22;28110;47.080;9.476;2023-12-22T13:31:37;6.30;99.90
42479;DHT22;28110;47.080;9.476;2023-12-22T13:34:09;6.40;99.90
42479;DHT22;28110;47.080;9.476;2023-12-22T13:36:36;6.30;99.90
42479;DHT22;28110;47.080;9.476;2023-12-22T13:39:05;6.30;99.90
42479;DHT22;28110;47.080;9.476;2023-12-22T13:41:42;6.30;99.90
42479;DHT22;28110;47.080;9.476;2023-12-22T13:44:11;6.30;99.90
42479;DHT22;28110;47.080;9.476;2023-12-22T13:46:37;6.20;99.90
42479;DHT22;28110;47.080;9.476;2023-12-22T13:49:10;6.20;99.90
42479;DHT22;28110;47.080;9.476;2023-12-22T13:51:42;6.20;99.90
42479;DHT22;28110;47.080;9.476;2023-12-22T13:54:08;6.20;99.90
42479;DHT22;28110;47.080;9.476;2023-12-22T13:56:38;6.10;99.90
42479;DHT22;28110;47.080;9.476;2023-12-22T13:59:07;6.10;99.90
42479;DHT22;28110;47.080;9.476;2023-12-22T14:01:33;6.10;99.90
42479;DHT22;28110;47.080;9.476;2023-12-22T14:03:59;6.10;99.90
42479;DHT22;28110;47.080;9.476;2023-12-22T14:06:28;6.10;99.90
42479;DHT22;28110;47.080;9.476;2023-12-22T14:08:54;6.00;99.90
42479;DHT22;28110;47.080;9.476;2023-12-22T14:11:20;6.00;99.90
42479;DHT22;28110;47.080;9.476;2023-12-22T14:13:46;6.00;99.90
42479;DHT22;28110;47.080;9.476;2023-12-22T14:16:11;5.90;99.90
42479;DHT22;28110;47.080;9.476;2023-12-22T14:18:37;5.90;99.90
42479;DHT22;28110;47.080;9.476;2023-12-22T14:21:03;5.90;99.90
42479;DHT22;28110;47.080;9.476;2023-12-22T14:23:30;5.90;99.90
42479;DHT22;28110;47.080;9.476;2023-12-22T14:25:56;5.80;99.90
42479;DHT22;28110;47.080;9.476;2023-12-22T14:28:22;5.80;99.90
42479;DHT22;28110;47.080;9.476;2023-12-22T14:30:47;5.80;99.90
42479;DHT22;28110;47.080;9.476;2023-12-22T14:33:13;5.80;99.90
42479;DHT22;28110;47.080;9.476;2023-12-22T14:35:39;5.80;99.90
42479;DHT22;28110;47.080;9.476;2023-12-22T14:38:05;5.80;99.90
42479;DHT22;28110;47.080;9.476;2023-12-22T14:40:30;5.80;99.90
42479;DHT22;28110;47.080;9.476;2023-12-22T14:42:56;5.80;99.90
42479;DHT22;28110;47.080;9.476;2023-12-22T14:45:21;5.90;99.90
42479;DHT22;28110;47.080;9.476;2023-12-22T14:47:48;5.80;99.90
42479;DHT22;28110;47.080;9.476;2023-12-22T14:50:14;5.80;99.90
42479;DHT22;28110;47.080;9.476;2023-12-22T14:52:39;5.80;99.90
42479;DHT22;28110;47.080;9.476;2023-12-22T14:55:06;5.80;99.90
42479;DHT22;28110;47.080;9.476;2023-12-22T14:57:31;5.80;99.90
42479;DHT22;28110;47.080;9.476;2023-12-22T14:59:59;5.80;99.90
42479;DHT22;28110;47.080;9.476;2023-12-22T15:02:25;5.70;99.90
42479;DHT22;28110;47.080;9.476;2023-12-22T15:04:51;5.70;99.90
42479;DHT22;28110;47.080;9.476;2023-12-22T15:07:19;5.70;99.90
42479;DHT22;28110;47.080;9.476;2023-12-22T15:09:46;5.70;99.90
42479;DHT22;28110;47.080;9.476;2023-12-22T15:12:13;5.70;99.90
42479;DHT22;28110;47.080;9.476;2023-12-22T15:14:46;5.70;99.90
42479;DHT22;28110;47.080;9.476;2023-12-22T15:17:12;5.80;99.90
42479;DHT22;28110;47.080;9.476;2023-12-22T15:19:41;5.80;99.90
42479;DHT22;28110;47.080;9.476;2023-12-22T15:22:08;5.70;99.90
42479;DHT22;28110;47.080;9.476;2023-12-22T15:24:36;5.80;99.90
42479;DHT22;28110;47.080;9.476;2023-12-22T15:27:05;5.80;99.90
42479;DHT22;28110;47.080;9.476;2023-12-22T15:29:31;5.70;99.90
42479;DHT22;28110;47.080;9.476;2023-12-22T15:31:56;5.70;99.90
42479;DHT22;28110;47.080;9.476;2023-12-22T15:34:25;5.80;99.90
42479;DHT22;28110;47.080;9.476;2023-12-22T15:36:51;5.80;99.90
42479;DHT22;28110;47.080;9.476;2023-12-22T15:39:16;5.80;99.90
42479;DHT22;28110;47.080;9.476;2023-12-22T15:41:42;5.80;99.90
42479;DHT22;28110;47.080;9.476;2023-12-22T15:44:07;5.90;99.90
42479;DHT22;28110;47.080;9.476;2023-12-22T15:46:33;5.90;99.90
42479;DHT22;28110;47.080;9.476;2023-12-22T15:48:58;6.00;99.90